createdAt,value
2019-02-16T00:02:22.800Z,109.40
2019-02-16T00:04:49.349Z,100.93
2019-02-16T00:07:15.942Z,95.63
2019-02-16T00:09:42.597Z,96.50
2019-02-16T00:12:09.291Z,97.70
2019-02-16T00:14:37.236Z,113.90
2019-02-16T00:17:03.883Z,94.33
2019-02-16T00:19:30.502Z,95.67
2019-02-16T00:21:57.082Z,84.97
2019-02-16T00:24:23.680Z,91.37
2019-02-16T00:26:50.221Z,115.03
2019-02-16T00:29:16.794Z,86.60
2019-02-16T00:31:43.363Z,77.63
2019-02-16T00:34:09.943Z,88.20
2019-02-16T00:36:36.593Z,88.10
2019-02-16T00:39:04.031Z,97.43
2019-02-16T00:41:30.728Z,90.33
2019-02-16T00:43:57.358Z,93.97
2019-02-16T00:46:23.935Z,96.03
2019-02-16T00:48:51.940Z,88.33
2019-02-16T00:51:18.557Z,93.47
2019-02-16T00:53:45.356Z,91.53
2019-02-16T00:56:13.091Z,83.10
2019-02-16T00:58:39.717Z,88.97
2019-02-16T01:01:06.304Z,91.30
2019-02-16T01:03:32.949Z,83.37
2019-02-16T01:05:59.608Z,90.70
2019-02-16T01:08:26.194Z,76.90
2019-02-16T01:10:52.897Z,81.57
2019-02-16T01:13:19.532Z,89.00
2019-02-16T01:15:46.306Z,82.97
2019-02-16T01:18:12.852Z,83.90
2019-02-16T01:20:39.416Z,72.30
2019-02-16T01:23:05.982Z,71.17
2019-02-16T01:25:32.567Z,76.57
2019-02-16T01:27:59.240Z,71.83
2019-02-16T01:30:25.919Z,69.00
2019-02-16T01:32:52.654Z,67.30
2019-02-16T01:35:19.211Z,76.67
2019-02-16T01:37:45.986Z,76.93
2019-02-16T01:40:12.608Z,74.30
2019-02-16T01:42:39.148Z,72.10
2019-02-16T01:45:07.191Z,82.90
2019-02-16T01:47:33.898Z,80.70
2019-02-16T01:50:00.511Z,74.97
2019-02-16T01:52:27.080Z,73.40
2019-02-16T01:54:53.696Z,86.83
2019-02-16T01:57:20.379Z,77.07
2019-02-16T01:59:47.077Z,85.27
2019-02-16T02:02:13.720Z,82.83
2019-02-16T02:04:40.286Z,76.87
2019-02-16T02:07:07.013Z,95.70
2019-02-16T02:09:33.542Z,87.33
2019-02-16T02:12:00.116Z,113.27
2019-02-16T02:14:26.698Z,86.47
2019-02-16T02:16:53.239Z,77.93
2019-02-16T02:19:20.996Z,69.03
2019-02-16T02:22:43.898Z,85.00
2019-02-16T02:25:10.484Z,79.03
2019-02-16T02:27:37.124Z,75.93
2019-02-16T02:30:08.518Z,65.03
2019-02-16T02:32:35.143Z,65.37
2019-02-16T02:35:03.442Z,69.23
2019-02-16T02:37:30.054Z,71.63
2019-02-16T02:39:56.651Z,63.60
2019-02-16T02:42:23.352Z,66.03
2019-02-16T02:44:49.910Z,68.27
2019-02-16T02:48:13.978Z,63.80
2019-02-16T02:50:40.679Z,61.33
2019-02-16T02:53:07.320Z,65.93
2019-02-16T02:55:33.936Z,74.23
2019-02-16T02:58:00.639Z,58.70
2019-02-16T03:00:27.243Z,68.43
2019-02-16T03:02:53.861Z,59.03
2019-02-16T03:05:20.417Z,62.83
2019-02-16T03:07:47.213Z,63.63
2019-02-16T03:10:13.813Z,57.50
2019-02-16T03:12:40.400Z,63.10
2019-02-16T03:15:06.983Z,60.17
2019-02-16T03:17:33.550Z,54.03
2019-02-16T03:20:00.093Z,56.93
2019-02-16T03:22:32.737Z,62.77
2019-02-16T03:24:59.362Z,49.03
2019-02-16T03:27:31.879Z,44.37
2019-02-16T03:30:04.186Z,43.97
2019-02-16T03:32:37.911Z,49.60
2019-02-16T03:35:11.332Z,53.00
2019-02-16T03:37:41.749Z,47.37
2019-02-16T03:40:11.205Z,50.93
2019-02-16T03:42:37.785Z,60.00
2019-02-16T03:45:05.028Z,62.10
2019-02-16T03:47:31.568Z,51.57
2019-02-16T03:49:58.152Z,64.00
2019-02-16T03:52:24.711Z,53.73
2019-02-16T03:54:51.403Z,45.27
2019-02-16T03:57:18.020Z,39.10
2019-02-16T03:59:45.761Z,45.93
2019-02-16T04:02:12.380Z,47.00
2019-02-16T04:04:38.956Z,42.83
2019-02-16T04:07:05.524Z,42.97
2019-02-16T04:09:32.091Z,39.67
2019-02-16T04:11:58.666Z,39.20
2019-02-16T04:14:25.216Z,42.87
2019-02-16T04:16:51.918Z,36.10
2019-02-16T04:19:18.573Z,41.07
2019-02-16T04:21:46.416Z,39.13
2019-02-16T04:24:13.076Z,33.67
2019-02-16T04:26:40.636Z,41.70
2019-02-16T04:29:08.548Z,41.77
2019-02-16T04:31:35.190Z,38.50
2019-02-16T04:34:01.759Z,42.30
2019-02-16T04:36:28.446Z,37.93
2019-02-16T04:38:55.036Z,38.33
2019-02-16T04:41:21.581Z,42.37
2019-02-16T04:43:49.575Z,39.97
2019-02-16T04:46:16.199Z,36.83
2019-02-16T04:48:42.766Z,30.13
2019-02-16T04:51:09.315Z,32.47
2019-02-16T04:53:35.962Z,36.77
2019-02-16T04:56:02.589Z,36.57
2019-02-16T04:58:29.212Z,31.73
2019-02-16T05:00:55.807Z,30.80
2019-02-16T05:03:22.409Z,28.03
2019-02-16T05:05:50.092Z,34.13
2019-02-16T05:08:16.676Z,32.60
2019-02-16T05:10:43.392Z,36.93
2019-02-16T05:13:09.952Z,30.60
2019-02-16T05:15:37.559Z,35.80
2019-02-16T05:18:04.120Z,29.70
2019-02-16T05:20:30.715Z,34.17
2019-02-16T05:22:57.423Z,39.90
2019-02-16T05:25:24.069Z,28.63
2019-02-16T05:27:50.641Z,30.53
2019-02-16T05:30:20.612Z,34.77
2019-02-16T05:32:47.346Z,32.13
2019-02-16T05:35:13.924Z,31.17
2019-02-16T05:37:40.518Z,35.53
2019-02-16T05:40:07.681Z,30.13
2019-02-16T05:42:34.281Z,28.50
2019-02-16T05:45:00.908Z,28.10
2019-02-16T05:47:27.634Z,29.83
2019-02-16T05:49:54.213Z,30.50
2019-02-16T05:52:22.199Z,30.10
2019-02-16T05:54:48.831Z,25.90
2019-02-16T05:57:15.418Z,30.20
2019-02-16T05:59:42.067Z,29.77
2019-02-16T06:02:08.611Z,29.17
2019-02-16T06:04:35.167Z,36.77
2019-02-16T06:07:02.097Z,34.03
2019-02-16T06:09:28.761Z,29.77
2019-02-16T06:11:55.351Z,30.90
2019-02-16T06:14:21.960Z,29.50
2019-02-16T06:16:48.534Z,29.47
2019-02-16T06:19:18.178Z,27.63
2019-02-16T06:21:44.784Z,26.50
2019-02-16T06:24:11.338Z,26.13
2019-02-16T06:26:37.904Z,32.33
2019-02-16T06:29:04.459Z,24.30
2019-02-16T06:31:31.144Z,28.23
2019-02-16T06:33:57.731Z,29.67
2019-02-16T06:39:11.148Z,22.73
2019-02-16T06:41:37.702Z,29.20
2019-02-16T06:44:04.408Z,27.00
2019-02-16T06:46:31.039Z,25.63
2019-02-16T06:48:57.634Z,26.23
2019-02-16T06:51:24.201Z,21.73
2019-02-16T06:53:50.759Z,21.70
2019-02-16T06:56:19.269Z,22.30
2019-02-16T06:58:46.047Z,19.73
2019-02-16T07:01:12.696Z,19.40
2019-02-16T07:03:39.269Z,17.50
2019-02-16T07:06:05.960Z,19.97
2019-02-16T07:08:32.571Z,19.33
2019-02-16T07:10:59.146Z,20.00
2019-02-16T07:13:25.736Z,20.90
2019-02-16T07:15:54.271Z,22.17
2019-02-16T07:18:22.747Z,21.67
2019-02-16T07:20:49.309Z,23.57
2019-02-16T07:23:22.309Z,18.93
2019-02-16T07:25:44.669Z,19.77
2019-02-16T07:28:11.350Z,15.17
2019-02-16T07:30:38.014Z,17.13
2019-02-16T07:33:04.644Z,19.83
2019-02-16T07:35:31.226Z,15.80
2019-02-16T07:37:57.839Z,19.63
2019-02-16T07:40:24.416Z,17.20
2019-02-16T07:42:52.087Z,19.63
2019-02-16T07:45:24.345Z,22.93
2019-02-16T07:47:52.824Z,19.40
2019-02-16T07:50:21.343Z,21.00
2019-02-16T07:52:49.826Z,19.60
2019-02-16T07:55:20.570Z,23.90
2019-02-16T07:57:49.061Z,21.97
2019-02-16T08:00:17.519Z,28.23
2019-02-16T08:02:46.087Z,22.23
2019-02-16T08:05:14.640Z,22.57
2019-02-16T08:07:43.209Z,20.57
2019-02-16T08:10:12.081Z,23.23
2019-02-16T08:12:40.539Z,23.50
2019-02-16T08:15:09.065Z,23.40
2019-02-16T08:17:37.582Z,20.50
2019-02-16T08:20:06.172Z,20.70
2019-02-16T08:22:34.664Z,20.70
2019-02-16T08:25:01.248Z,18.13
2019-02-16T08:27:29.753Z,20.33
2019-02-16T08:29:58.302Z,24.90
2019-02-16T08:32:26.903Z,25.47
2019-02-16T08:34:55.375Z,28.27
2019-02-16T08:37:23.952Z,23.83
2019-02-16T08:39:52.464Z,26.30
2019-02-16T08:42:21.099Z,22.47
2019-02-16T08:44:49.600Z,24.43
2019-02-16T08:47:18.121Z,21.97
2019-02-16T08:49:46.655Z,21.50
2019-02-16T08:52:15.278Z,17.60
2019-02-16T08:54:43.926Z,23.00
2019-02-16T08:57:12.646Z,22.73
2019-02-16T08:59:41.138Z,28.23
2019-02-16T09:02:09.612Z,24.53
2019-02-16T09:04:38.322Z,23.50
2019-02-16T09:07:06.857Z,21.50
2019-02-16T09:09:35.347Z,30.03
2019-02-16T09:13:00.336Z,29.27
2019-02-16T09:15:28.960Z,21.57
2019-02-16T09:17:55.559Z,19.43
2019-02-16T09:20:24.017Z,40.17
2019-02-16T09:22:52.644Z,22.60
2019-02-16T09:25:19.190Z,22.33
2019-02-16T09:27:47.727Z,22.70
2019-02-16T09:30:16.220Z,91.33
2019-02-16T09:32:44.763Z,51.00
2019-02-16T09:35:13.304Z,27.70
2019-02-16T09:37:41.748Z,26.97
2019-02-16T09:40:10.306Z,22.90
2019-02-16T09:42:43.651Z,28.33
2019-02-16T09:45:14.187Z,19.27
2019-02-16T09:47:42.751Z,31.87
2019-02-16T09:50:11.411Z,23.57
2019-02-16T09:52:40.005Z,19.17
2019-02-16T09:55:08.584Z,24.87
2019-02-16T09:57:37.077Z,17.50
2019-02-16T10:00:10.162Z,20.73
2019-02-16T10:02:38.634Z,20.77
2019-02-16T10:05:07.276Z,55.70
2019-02-16T10:07:33.912Z,27.37
2019-02-16T10:10:02.456Z,19.23
2019-02-16T10:12:30.963Z,21.97
2019-02-16T10:14:59.684Z,27.77
2019-02-16T10:17:28.259Z,23.67
2019-02-16T10:19:56.808Z,21.40
2019-02-16T10:22:25.383Z,21.77
2019-02-16T10:25:50.200Z,20.67
2019-02-16T10:28:18.747Z,24.70
2019-02-16T10:30:47.437Z,25.07
2019-02-16T10:33:15.919Z,23.47
2019-02-16T10:35:44.504Z,36.40
2019-02-16T10:38:13.022Z,34.67
2019-02-16T10:40:41.496Z,24.83
2019-02-16T10:43:09.980Z,30.53
2019-02-16T10:45:38.595Z,33.37
2019-02-16T10:48:07.074Z,25.90
2019-02-16T10:51:31.730Z,32.57
2019-02-16T10:54:00.998Z,26.73
2019-02-16T10:56:29.996Z,30.50
2019-02-16T10:58:58.552Z,29.37
2019-02-16T11:01:27.063Z,31.13
2019-02-16T11:03:55.620Z,29.50
2019-02-16T11:06:24.215Z,26.90
2019-02-16T11:08:52.810Z,31.13
2019-02-16T11:11:21.842Z,30.80
2019-02-16T11:13:50.387Z,24.83
2019-02-16T11:16:19.569Z,30.70
2019-02-16T11:18:48.189Z,27.33
2019-02-16T11:21:17.856Z,27.47
2019-02-16T11:23:46.600Z,28.33
2019-02-16T11:26:15.295Z,29.03
2019-02-16T11:28:43.941Z,26.40
2019-02-16T11:31:12.476Z,28.87
2019-02-16T11:33:41.033Z,24.87
2019-02-16T11:36:09.619Z,28.20
2019-02-16T11:38:38.198Z,24.17
2019-02-16T11:41:08.731Z,21.43
2019-02-16T11:43:37.305Z,27.43
2019-02-16T11:47:02.247Z,22.03
2019-02-16T11:49:30.783Z,24.53
2019-02-16T11:51:59.320Z,29.37
2019-02-16T11:54:27.863Z,28.20
2019-02-16T11:56:59.923Z,26.37
2019-02-16T11:59:28.483Z,31.13
2019-02-16T12:01:58.075Z,33.23
2019-02-16T12:04:26.718Z,73.10
2019-02-16T12:06:57.401Z,58.27
2019-02-16T12:09:24.022Z,54.63
2019-02-16T12:11:52.512Z,29.67
2019-02-16T12:14:19.178Z,29.23
2019-02-16T12:16:47.847Z,27.70
2019-02-16T12:19:16.377Z,28.67
2019-02-16T12:21:44.962Z,32.57
2019-02-16T12:24:13.518Z,29.73
2019-02-16T12:26:42.167Z,30.07
2019-02-16T12:29:10.678Z,26.23
2019-02-16T12:31:40.677Z,30.63
2019-02-16T12:35:05.727Z,26.20
2019-02-16T12:37:34.268Z,25.83
2019-02-16T12:40:02.897Z,30.90
2019-02-16T12:42:32.720Z,26.90
2019-02-16T12:45:01.287Z,26.53
2019-02-16T12:47:29.795Z,29.07
2019-02-16T12:49:58.359Z,26.50
2019-02-16T12:52:26.867Z,32.10
2019-02-16T12:54:55.422Z,26.93
2019-02-16T12:57:23.940Z,28.63
2019-02-16T12:59:52.479Z,25.80
2019-02-16T13:02:20.978Z,28.70
2019-02-16T13:04:49.614Z,30.07
2019-02-16T13:07:18.598Z,25.67
2019-02-16T13:09:48.308Z,26.70
2019-02-16T13:12:16.864Z,25.43
2019-02-16T13:14:45.391Z,29.40
2019-02-16T13:18:10.475Z,40.67
2019-02-16T13:20:38.959Z,30.27
2019-02-16T13:23:10.162Z,27.83
2019-02-16T13:25:38.701Z,29.13
2019-02-16T13:28:07.283Z,26.83
2019-02-16T13:30:35.835Z,29.03
2019-02-16T13:33:08.575Z,31.83
2019-02-16T13:35:34.823Z,28.93
2019-02-16T13:38:03.445Z,30.20
2019-02-16T13:40:31.955Z,27.17
2019-02-16T13:43:00.520Z,30.60
2019-02-16T13:45:29.061Z,33.03
2019-02-16T13:47:57.524Z,28.10
2019-02-16T13:50:26.088Z,29.70
2019-02-16T13:52:54.708Z,37.67
2019-02-16T13:55:23.166Z,31.70
2019-02-16T13:57:51.788Z,30.40
2019-02-16T14:00:20.305Z,31.27
2019-02-16T14:02:49.035Z,28.37
2019-02-16T14:05:17.553Z,28.53
2019-02-16T14:07:46.210Z,30.10
2019-02-16T14:10:14.798Z,30.57
2019-02-16T14:13:39.840Z,35.10
2019-02-16T14:16:08.370Z,42.30
2019-02-16T14:18:35.006Z,33.80
2019-02-16T14:21:01.623Z,37.97
2019-02-16T14:23:28.593Z,35.67
2019-02-16T14:25:55.864Z,38.20
2019-02-16T14:28:25.789Z,41.90
2019-02-16T14:30:52.365Z,35.27
2019-02-16T14:33:19.030Z,40.37
2019-02-16T14:35:45.796Z,37.03
2019-02-16T14:38:14.396Z,40.83
2019-02-16T14:40:41.342Z,40.50
2019-02-16T14:43:07.965Z,44.73
2019-02-16T14:45:36.550Z,40.70
2019-02-16T14:48:03.136Z,49.03
2019-02-16T14:50:29.816Z,55.53
2019-02-16T14:52:56.377Z,48.60
2019-02-16T14:55:22.992Z,58.73
2019-02-16T14:57:49.639Z,55.87
2019-02-16T15:00:16.328Z,60.87
2019-02-16T15:02:42.910Z,55.97
2019-02-16T15:05:09.544Z,56.33
2019-02-16T15:07:36.110Z,58.37
2019-02-16T15:10:08.153Z,52.00
2019-02-16T15:12:34.697Z,58.33
2019-02-16T15:15:01.264Z,49.67
2019-02-16T15:17:27.864Z,48.27
2019-02-16T15:19:54.429Z,49.33
2019-02-16T15:22:21.140Z,53.30
2019-02-16T15:25:45.240Z,49.30
2019-02-16T15:28:11.956Z,55.70
2019-02-16T15:30:38.660Z,55.37
2019-02-16T15:33:05.203Z,57.23
2019-02-16T15:35:31.816Z,55.30
2019-02-16T15:37:58.518Z,61.23
2019-02-16T15:40:25.138Z,66.83
2019-02-16T15:42:51.889Z,59.50
2019-02-16T15:45:18.483Z,60.67
2019-02-16T15:47:45.075Z,69.60
2019-02-16T15:50:13.926Z,70.30
2019-02-16T15:52:40.565Z,78.53
2019-02-16T15:55:10.105Z,80.30
2019-02-16T15:57:36.736Z,75.00
2019-02-16T16:00:10.207Z,81.43
2019-02-16T16:02:36.995Z,75.03
2019-02-16T16:05:03.619Z,74.20
2019-02-16T16:07:30.193Z,72.10
2019-02-16T16:09:58.774Z,76.93
2019-02-16T16:13:23.944Z,77.20
2019-02-16T16:15:52.441Z,77.17
2019-02-16T16:18:20.905Z,71.73
2019-02-16T16:20:50.546Z,72.37
2019-02-16T16:23:19.078Z,78.83
2019-02-16T16:25:47.756Z,80.00
2019-02-16T16:28:16.276Z,79.37
2019-02-16T16:30:44.813Z,72.23
2019-02-16T16:33:13.391Z,74.57
2019-02-16T16:35:42.024Z,78.30
2019-02-16T16:38:10.587Z,70.93
2019-02-16T16:40:39.170Z,85.60
2019-02-16T16:43:07.705Z,86.10
2019-02-16T16:45:36.292Z,87.00
2019-02-16T16:48:06.934Z,83.87
2019-02-16T16:50:35.479Z,85.00
2019-02-16T16:53:04.100Z,87.00
2019-02-16T16:55:32.739Z,86.70
2019-02-16T16:58:01.297Z,94.00
2019-02-16T17:00:29.854Z,91.07
2019-02-16T17:03:56.588Z,86.27
2019-02-16T17:06:25.195Z,96.23
2019-02-16T17:08:53.695Z,107.97
2019-02-16T17:11:22.221Z,106.23
2019-02-16T17:13:50.775Z,99.50
2019-02-16T17:16:19.267Z,94.13
2019-02-16T17:18:48.002Z,103.43
2019-02-16T17:21:25.330Z,105.23
2019-02-16T17:23:54.825Z,113.50
2019-02-16T17:26:23.443Z,100.70
2019-02-16T17:28:53.605Z,102.53
2019-02-16T17:31:22.094Z,107.37
2019-02-16T17:33:50.648Z,109.03
2019-02-16T17:36:19.134Z,111.67
2019-02-16T17:38:47.877Z,109.50
2019-02-16T17:41:16.405Z,108.17
2019-02-16T17:43:45.029Z,104.40
2019-02-16T17:46:13.517Z,105.37
2019-02-16T17:48:44.670Z,113.37
2019-02-16T17:51:14.677Z,115.23
2019-02-16T17:53:43.283Z,119.13
2019-02-16T17:56:11.779Z,119.10
2019-02-16T17:58:40.275Z,124.07
2019-02-16T18:01:08.806Z,120.17
2019-02-16T18:03:37.357Z,128.87
2019-02-16T18:06:05.920Z,122.37
2019-02-16T18:08:34.440Z,120.27
2019-02-16T18:11:03.124Z,124.40
2019-02-16T18:13:36.477Z,130.30
2019-02-16T18:16:06.646Z,122.70
2019-02-16T18:18:35.287Z,127.73
2019-02-16T18:21:03.812Z,116.83
2019-02-16T18:23:47.980Z,122.57
2019-02-16T18:26:17.761Z,125.87
2019-02-16T18:28:46.576Z,122.23
2019-02-16T18:31:15.641Z,116.90
2019-02-16T18:33:44.451Z,118.30
2019-02-16T18:36:31.919Z,123.40
2019-02-16T18:39:00.686Z,129.20
2019-02-16T18:41:29.470Z,125.10
2019-02-16T18:43:59.875Z,125.20
2019-02-16T18:46:28.625Z,131.07
2019-02-16T18:48:57.230Z,128.03
2019-02-16T18:51:25.718Z,124.33
2019-02-16T18:53:54.253Z,136.33
2019-02-16T18:56:23.244Z,129.23
2019-02-16T18:58:51.739Z,132.40
2019-02-16T19:01:18.540Z,122.57
2019-02-16T19:06:34.053Z,125.80
2019-02-16T19:09:03.301Z,119.50
2019-02-16T19:11:32.918Z,126.77
2019-02-16T19:14:58.003Z,124.50
2019-02-16T19:17:26.565Z,124.43
2019-02-16T19:19:56.240Z,129.13
2019-02-16T19:22:25.120Z,127.57
2019-02-16T19:24:54.773Z,126.77
2019-02-16T19:27:25.708Z,125.00
2019-02-16T19:29:54.311Z,122.47
2019-02-16T19:32:22.827Z,125.50
2019-02-16T19:34:52.558Z,138.13
2019-02-16T19:37:22.403Z,132.80
2019-02-16T19:39:51.484Z,118.63
2019-02-16T19:42:20.956Z,127.87
2019-02-16T19:44:49.705Z,129.83
2019-02-16T19:47:18.436Z,123.53
2019-02-16T19:49:47.275Z,130.40
2019-02-16T19:52:15.819Z,122.97
2019-02-16T19:54:44.640Z,131.77
2019-02-16T19:57:26.934Z,128.87
2019-02-16T19:59:53.778Z,122.17
2019-02-16T20:02:22.820Z,123.33
2019-02-16T20:04:51.878Z,132.60
2019-02-16T20:07:21.564Z,120.83
2019-02-16T20:09:50.142Z,126.20
2019-02-16T20:12:18.642Z,136.30
2019-02-16T20:14:53.611Z,144.10
2019-02-16T20:17:22.014Z,143.70
2019-02-16T20:19:50.717Z,138.73
2019-02-16T20:22:19.375Z,138.00
2019-02-16T20:24:48.078Z,130.13
2019-02-16T20:27:16.904Z,129.70
2019-02-16T20:29:45.747Z,127.90
2019-02-16T20:32:15.722Z,128.57
2019-02-16T20:34:45.968Z,142.47
2019-02-16T20:38:10.931Z,136.80
2019-02-16T20:40:39.859Z,144.97
2019-02-16T20:43:08.492Z,149.13
2019-02-16T20:45:37.047Z,145.60
2019-02-16T20:48:05.668Z,149.17
2019-02-16T20:50:34.206Z,162.37
2019-02-16T20:53:59.366Z,154.53
2019-02-16T20:56:27.886Z,174.73
2019-02-16T20:58:56.505Z,142.10
2019-02-16T21:01:24.996Z,149.73
2019-02-16T21:03:53.850Z,149.30
2019-02-16T21:06:22.533Z,139.43
2019-02-16T21:08:51.125Z,140.13
2019-02-16T21:11:19.906Z,134.83
2019-02-16T21:13:48.594Z,146.23
2019-02-16T21:16:17.286Z,135.60
2019-02-16T21:18:46.837Z,141.63
2019-02-16T21:21:15.353Z,148.17
2019-02-16T21:23:43.900Z,144.30
2019-02-16T21:26:12.430Z,142.90
2019-02-16T21:28:41.429Z,147.17
2019-02-16T21:31:10.017Z,144.13
2019-02-16T21:33:39.024Z,159.50
2019-02-16T21:36:08.445Z,144.40
2019-02-16T21:38:37.326Z,146.90
2019-02-16T21:41:08.039Z,132.87
2019-02-16T21:43:37.080Z,144.13
2019-02-16T21:46:05.863Z,139.57
2019-02-16T21:48:34.669Z,137.17
2019-02-16T21:51:03.654Z,139.70
2019-02-16T21:53:32.751Z,144.03
2019-02-16T21:56:01.683Z,173.73
2019-02-16T21:58:31.102Z,174.83
2019-02-16T22:01:00.045Z,189.80
2019-02-16T22:03:27.029Z,199.60
2019-02-16T22:05:55.816Z,182.70
2019-02-16T22:08:24.700Z,186.60
2019-02-16T22:10:53.571Z,168.57
2019-02-16T22:13:20.892Z,176.43
2019-02-16T22:15:51.211Z,176.00
2019-02-16T22:18:18.092Z,167.97
2019-02-16T22:20:45.131Z,167.97
2019-02-16T22:23:12.815Z,169.03
2019-02-16T22:25:39.744Z,173.50
2019-02-16T22:28:06.820Z,154.20
2019-02-16T22:30:34.208Z,160.77
2019-02-16T22:33:01.311Z,153.93
2019-02-16T22:35:28.605Z,171.07
2019-02-16T22:37:55.625Z,165.87
2019-02-16T22:40:23.228Z,163.63
2019-02-16T22:42:50.217Z,170.17
2019-02-16T22:45:17.838Z,182.67
2019-02-16T22:47:45.197Z,182.87
2019-02-16T22:50:12.068Z,187.63
2019-02-16T22:52:39.224Z,197.10
2019-02-16T22:55:08.367Z,174.47
2019-02-16T22:57:35.385Z,171.87
2019-02-16T23:00:08.242Z,163.93
2019-02-16T23:02:37.217Z,164.17
2019-02-16T23:05:04.321Z,156.97
2019-02-16T23:07:31.233Z,163.50
2019-02-16T23:09:58.316Z,173.47
2019-02-16T23:12:25.210Z,162.60
2019-02-16T23:14:52.318Z,170.87
2019-02-16T23:17:19.218Z,169.87
2019-02-16T23:19:46.248Z,176.93
2019-02-16T23:22:13.267Z,181.33
2019-02-16T23:24:40.234Z,170.40
2019-02-16T23:27:07.241Z,167.07
2019-02-16T23:29:34.248Z,160.10
2019-02-16T23:32:01.195Z,160.27
2019-02-16T23:34:28.136Z,166.00
2019-02-16T23:37:51.053Z,170.87
2019-02-16T23:40:18.244Z,167.70
2019-02-16T23:42:46.036Z,155.10
2019-02-16T23:45:12.896Z,165.23
2019-02-16T23:47:40.694Z,154.60
2019-02-16T23:50:10.082Z,155.53
2019-02-16T23:52:37.104Z,153.90
2019-02-16T23:55:08.580Z,157.17
2019-02-16T23:57:36.208Z,163.10
